Time;durP1;ratioP1;P1;durP2;ratioP2;P2;SDS_P1;SDS_P2;PMS_P1;PMS_P2;Temp;Humidity;BMP_temperature;BMP_pressure;BME280_temperature;BME280_humidity;BME280_pressure;Samples;Min_cycle;Max_cycle;Signal;HPM_P1;HPM_P2
2020/12/03 00:01:13;;;;;;;4.65;1.60;;;;;;;2.43;100.00;100499.03;4974256;28;20193;-77
2020/12/03 00:03:43;;;;;;;3.20;0.95;;;;;;;2.27;100.00;100500.50;4974021;28;20172;-78
2020/12/03 00:06:22;;;;;;;3.73;1.20;;;;;;;2.46;100.00;100507.19;4973459;28;20182;-79
2020/12/03 00:08:51;;;;;;;6.70;1.57;;;;;;;2.53;100.00;100498.78;4973048;28;20482;-79
2020/12/03 00:11:18;;;;;;;5.13;1.40;;;;;;;2.36;100.00;100501.38;4975074;28;20463;-80
2020/12/03 00:13:43;;;;;;;3.30;1.17;;;;;;;2.40;100.00;100497.00;4983047;28;20518;-78
2020/12/03 00:16:29;;;;;;;5.47;1.50;;;;;;;2.44;100.00;100484.69;4981324;28;20445;-78
2020/12/03 00:18:56;;;;;;;4.33;1.47;;;;;;;2.49;100.00;100471.25;5029156;28;20278;-80
2020/12/03 00:21:40;;;;;;;4.50;1.50;;;;;;;2.47;100.00;100468.13;5019592;28;20454;-78
2020/12/03 00:24:06;;;;;;;3.90;1.03;;;;;;;2.48;100.00;100473.13;5005780;28;20475;-78
2020/12/03 00:26:32;;;;;;;3.43;0.70;;;;;;;2.48;100.00;100461.72;5009200;28;20449;-79
2020/12/03 00:28:58;;;;;;;4.00;0.97;;;;;;;2.31;100.00;100465.06;4992083;28;20462;-79
2020/12/03 00:31:24;;;;;;;4.70;1.40;;;;;;;2.39;100.00;100461.69;5010944;28;20210;-79
2020/12/03 00:33:50;;;;;;;4.23;1.20;;;;;;;2.47;100.00;100468.13;5009549;28;20442;-80
2020/12/03 00:36:16;;;;;;;3.00;0.77;;;;;;;2.26;100.00;100461.78;4993752;28;20441;-78
2020/12/03 00:38:42;;;;;;;2.97;0.80;;;;;;;2.22;100.00;100460.81;5008294;28;20577;-79
2020/12/03 00:41:09;;;;;;;5.70;1.30;;;;;;;2.32;100.00;100457.91;5008349;28;20443;-79
2020/12/03 00:43:34;;;;;;;7.60;1.50;;;;;;;2.11;100.00;100454.19;4989675;28;20193;-80
2020/12/03 00:46:00;;;;;;;2.50;0.80;;;;;;;2.21;100.00;100451.25;5007919;28;20842;-81
2020/12/03 00:48:25;;;;;;;4.77;1.13;;;;;;;2.22;100.00;100460.81;4992562;28;20678;-77
2020/12/03 00:50:51;;;;;;;4.17;1.10;;;;;;;2.21;100.00;100460.00;5009302;28;20194;-78
2020/12/03 00:53:18;;;;;;;4.53;1.42;;;;;;;2.03;100.00;100463.66;5007359;28;20257;-80
2020/12/03 00:55:46;;;;;;;3.45;0.90;;;;;;;2.21;100.00;100456.56;4981797;28;20328;-79
2020/12/03 00:58:15;;;;;;;4.87;1.47;;;;;;;2.19;100.00;100448.91;4970049;28;20200;-79
2020/12/03 01:00:41;;;;;;;3.35;0.85;;;;;;;2.09;100.00;100446.50;4965668;28;20451;-77
2020/12/03 01:03:07;;;;;;;4.17;1.50;;;;;;;2.02;100.00;100432.88;4969237;28;20274;-79
2020/12/03 01:05:33;;;;;;;5.50;1.60;;;;;;;2.01;100.00;100425.22;4969446;28;20177;-79
2020/12/03 01:07:58;;;;;;;4.33;0.83;;;;;;;2.05;100.00;100419.00;4969683;28;20266;-79
2020/12/03 01:10:31;;;;;;;4.00;0.90;;;;;;;2.09;100.00;100414.63;4972410;28;20190;-80
2020/12/03 01:12:57;;;;;;;2.90;0.90;;;;;;;2.08;100.00;100409.63;4961791;28;20199;-79
2020/12/03 01:15:23;;;;;;;3.05;1.08;;;;;;;1.98;100.00;100401.91;4972590;28;20190;-78
2020/12/03 01:17:49;;;;;;;5.60;1.80;;;;;;;2.01;100.00;100388.84;4981598;28;20204;-79
2020/12/03 01:20:18;;;;;;;3.30;1.13;;;;;;;2.20;100.00;100383.31;4975412;28;20210;-79
2020/12/03 01:22:43;;;;;;;6.90;1.90;;;;;;;2.18;100.00;100375.66;4964407;28;20444;-78
2020/12/03 01:25:09;;;;;;;5.57;2.13;;;;;;;1.93;100.00;100375.50;4975617;28;20984;-80
2020/12/03 01:27:36;;;;;;;4.47;1.50;;;;;;;2.02;100.00;100360.41;4973165;28;20207;-77
2020/12/03 01:30:06;;;;;;;5.23;1.40;;;;;;;2.09;100.00;100363.44;4975036;28;20443;-77
2020/12/03 01:32:32;;;;;;;3.55;1.20;;;;;;;2.19;100.00;100365.81;4975077;28;20474;-78
2020/12/03 01:34:57;;;;;;;4.23;1.60;;;;;;;1.97;100.00;100361.34;4976423;28;20555;-79
2020/12/03 01:37:23;;;;;;;3.00;0.87;;;;;;;1.82;100.00;100365.16;4973877;28;20205;-79
2020/12/03 01:39:49;;;;;;;3.93;1.13;;;;;;;1.87;100.00;100358.94;4991277;28;20212;-79
2020/12/03 01:42:15;;;;;;;3.65;1.45;;;;;;;1.77;100.00;100349.34;4974628;28;20186;-80
2020/12/03 01:45:02;;;;;;;4.30;1.13;;;;;;;2.07;100.00;100347.78;4965751;28;20191;-79
2020/12/03 01:47:38;;;;;;;4.22;1.35;;;;;;;2.24;100.00;100349.75;4974782;28;20602;-79
2020/12/03 01:50:07;;;;;;;4.38;0.88;;;;;;;2.14;100.00;100339.38;4974929;28;20183;-80
2020/12/03 01:52:34;;;;;;;3.20;1.10;;;;;;;2.18;100.00;100340.34;5004309;28;20739;-80
2020/12/03 01:55:00;;;;;;;3.90;1.43;;;;;;;2.09;100.00;100337.63;4973287;28;20448;-78
2020/12/03 01:57:42;;;;;;;4.53;1.48;;;;;;;2.05;100.00;100335.91;5004744;28;20842;-78
2020/12/03 02:00:14;;;;;;;3.95;1.15;;;;;;;2.11;100.00;100324.84;5003474;28;20215;-78
2020/12/03 02:02:44;;;;;;;4.70;1.20;;;;;;;2.25;100.00;100320.22;4970839;28;20173;-77
2020/12/03 02:05:31;;;;;;;3.10;1.00;;;;;;;2.40;100.00;100311.81;4968705;28;20208;-78
2020/12/03 02:07:56;;;;;;;3.10;1.00;;;;;;;2.58;100.00;100315.31;4972486;28;20479;-78
2020/12/03 02:10:25;;;;;;;4.03;1.23;;;;;;;2.49;98.83;100311.84;4973482;28;20815;-78
2020/12/03 02:12:51;;;;;;;3.77;1.40;;;;;;;2.49;99.37;100304.66;5003749;28;20197;-78
2020/12/03 02:15:19;;;;;;;3.83;1.47;;;;;;;2.47;98.81;100298.09;4971682;28;20447;-79
2020/12/03 02:17:45;;;;;;;5.07;1.40;;;;;;;2.31;99.65;100300.41;4970402;28;20465;-80
2020/12/03 02:20:14;;;;;;;5.20;1.57;;;;;;;2.40;99.89;100300.44;5001997;28;20195;-80
2020/12/03 02:22:59;;;;;;;5.43;1.50;;;;;;;2.41;99.78;100288.69;4974012;28;20180;-81
2020/12/03 02:25:26;;;;;;;3.70;0.98;;;;;;;2.34;99.59;100285.72;4980133;28;20457;-80
2020/12/03 02:27:51;;;;;;;5.17;1.40;;;;;;;2.56;98.93;100281.06;4979879;28;20210;-81
2020/12/03 02:30:17;;;;;;;3.90;1.20;;;;;;;2.65;98.63;100281.84;4963302;28;21041;-80
2020/12/03 02:32:42;;;;;;;3.63;1.47;;;;;;;2.46;98.62;100273.41;4994477;28;20265;-82
2020/12/03 02:35:11;;;;;;;3.40;0.83;;;;;;;2.39;99.13;100275.72;4978622;28;20306;-83
2020/12/03 02:37:37;;;;;;;2.57;0.53;;;;;;;2.55;98.93;100281.41;4985229;28;20225;-83
2020/12/03 02:40:05;;;;;;;3.20;1.20;;;;;;;2.69;98.83;100280.16;4983589;28;20431;-82
2020/12/03 02:42:31;;;;;;;3.40;0.93;;;;;;;2.69;98.83;100282.03;4978140;28;20450;-83
2020/12/03 02:44:57;;;;;;;3.60;1.00;;;;;;;2.53;98.58;100288.88;4976021;28;20447;-82
2020/12/03 02:47:24;;;;;;;3.97;1.20;;;;;;;2.53;98.89;100281.72;4976949;28;20212;-83
2020/12/03 02:49:51;;;;;;;6.40;1.70;;;;;;;2.54;98.90;100274.50;4975328;28;20201;-83
2020/12/03 02:52:21;;;;;;;2.70;0.70;;;;;;;2.67;98.17;100278.91;4977933;28;20539;-82
2020/12/03 02:54:48;;;;;;;2.17;0.60;;;;;;;2.79;97.98;100275.63;4992148;28;20451;-82
2020/12/03 02:57:34;;;;;;;2.28;0.50;;;;;;;2.77;98.40;100272.50;4978012;28;20460;-81
2020/12/03 02:59:59;;;;;;;2.57;0.60;;;;;;;2.74;97.92;100268.59;4947757;28;20719;-80
2020/12/03 03:02:25;;;;;;;5.70;1.10;;;;;;;2.67;97.58;100263.72;4937672;28;20427;-82
2020/12/03 03:04:50;;;;;;;4.80;1.40;;;;;;;2.74;97.74;100258.75;4934172;29;20201;-81
2020/12/03 03:07:15;;;;;;;3.37;1.00;;;;;;;2.82;97.51;100251.88;4939984;29;20222;-80
2020/12/03 03:09:41;;;;;;;2.27;0.50;;;;;;;2.82;97.51;100251.88;4915569;29;20194;-80
2020/12/03 03:12:08;;;;;;;3.57;1.20;;;;;;;2.87;97.56;100240.28;4934338;29;20715;-83
2020/12/03 03:14:33;;;;;;;3.77;1.30;;;;;;;2.80;97.58;100248.75;4936185;29;20454;-82
2020/12/03 03:16:59;;;;;;;4.00;0.83;;;;;;;2.75;96.94;100246.22;4934099;29;20479;-83
2020/12/03 03:19:25;;;;;;;2.17;0.60;;;;;;;2.68;97.95;100237.94;4951273;28;20253;-83
2020/12/03 03:21:51;;;;;;;2.67;0.83;;;;;;;2.77;97.21;100229.97;4900731;29;20434;-83
2020/12/03 03:24:16;;;;;;;3.33;1.37;;;;;;;2.49;97.52;100232.94;4921374;29;20453;-82
2020/12/03 03:26:43;;;;;;;3.67;1.37;;;;;;;2.63;97.38;100216.84;4907614;29;20275;-77
2020/12/03 03:29:09;;;;;;;4.07;1.30;;;;;;;2.60;97.43;100212.16;4926786;29;20187;-81
2020/12/03 03:31:35;;;;;;;2.40;0.70;;;;;;;2.55;98.06;100209.66;4911319;29;20767;-81
2020/12/03 03:34:01;;;;;;;1.90;0.60;;;;;;;2.57;97.88;100218.09;4918546;29;20296;-83
2020/12/03 03:36:27;;;;;;;4.07;1.10;;;;;;;2.56;98.25;100208.53;4945459;28;20258;-79
2020/12/03 03:38:52;;;;;;;4.50;1.10;;;;;;;2.70;97.80;100211.84;4972548;28;20208;-80
2020/12/03 03:41:18;;;;;;;3.10;0.90;;;;;;;2.63;97.70;100198.25;4976292;28;20646;-83
2020/12/03 03:43:44;;;;;;;3.60;1.00;;;;;;;2.70;97.53;100188.72;4997331;28;20563;-81
2020/12/03 03:46:10;;;;;;;2.57;0.63;;;;;;;2.70;97.50;100182.59;4967436;28;20205;-83
2020/12/03 03:48:36;;;;;;;3.40;1.07;;;;;;;2.64;97.60;100181.19;4971100;28;20645;-79
2020/12/03 03:51:22;;;;;;;4.27;1.90;;;;;;;2.71;97.94;100184.16;4974950;28;20519;-79
2020/12/03 03:53:48;;;;;;;4.53;1.23;;;;;;;2.73;97.10;100174.00;4975147;28;20199;-79
2020/12/03 03:56:13;;;;;;;4.80;0.73;;;;;;;2.63;97.60;100167.13;4982448;28;20538;-81
2020/12/03 03:58:39;;;;;;;3.43;0.60;;;;;;;2.73;97.64;100160.69;4970842;28;20740;-81
2020/12/03 04:01:05;;;;;;;4.00;0.93;;;;;;;2.67;97.44;100161.97;4972755;28;20594;-81
2020/12/03 04:03:30;;;;;;;4.30;1.20;;;;;;;2.60;97.20;100165.09;4968485;28;20699;-79
2020/12/03 04:05:56;;;;;;;2.63;0.87;;;;;;;2.56;97.41;100171.34;4981164;28;20197;-79
2020/12/03 04:08:24;;;;;;;6.77;0.87;;;;;;;2.53;97.15;100167.47;4961785;28;20229;-79
2020/12/03 04:10:51;;;;;;;5.10;1.43;;;;;;;2.49;97.36;100157.75;4973865;28;20284;-80
2020/12/03 04:13:18;;;;;;;4.40;1.30;;;;;;;2.51;97.59;100158.22;4971237;28;21123;-79
2020/12/03 04:15:44;;;;;;;3.80;1.33;;;;;;;2.65;97.17;100156.19;4965399;28;20442;-81
2020/12/03 04:18:10;;;;;;;5.90;0.80;;;;;;;2.38;97.44;100153.88;4962200;28;20475;-81
2020/12/03 04:20:35;;;;;;;4.60;1.07;;;;;;;2.57;97.30;100151.66;4967344;28;20216;-80
2020/12/03 04:23:01;;;;;;;4.40;1.40;;;;;;;2.60;97.25;100143.06;4969925;28;20268;-80
2020/12/03 04:25:47;;;;;;;1.93;0.60;;;;;;;2.53;97.01;100142.75;4967373;28;20190;-81
2020/12/03 04:28:13;;;;;;;3.23;0.90;;;;;;;2.33;97.59;100128.22;4915399;29;20469;-80
2020/12/03 04:30:39;;;;;;;2.40;0.73;;;;;;;2.23;98.59;100139.16;4921682;29;21241;-81
2020/12/03 04:33:04;;;;;;;3.00;0.83;;;;;;;2.17;98.83;100137.75;4921371;29;20261;-81
2020/12/03 04:35:30;;;;;;;3.67;0.93;;;;;;;2.25;98.57;100139.63;4929866;29;20569;-81
2020/12/03 04:37:55;;;;;;;4.57;1.30;;;;;;;2.23;98.06;100139.16;4934687;29;20673;-80
2020/12/03 04:40:30;;;;;;;2.60;0.57;;;;;;;1.89;98.90;100136.47;4930951;29;20194;-80
2020/12/03 04:43:13;;;;;;;3.60;0.73;;;;;;;1.94;99.53;100135.53;4918007;29;20275;-80
2020/12/03 04:45:46;;;;;;;4.47;1.02;;;;;;;1.90;100.00;100126.63;4928185;29;20468;-80
2020/12/03 04:48:23;;;;;;;3.63;0.88;;;;;;;2.07;99.64;100127.41;4934740;29;20709;-80
2020/12/03 04:51:16;;;;;;;4.10;1.05;;;;;;;2.04;99.15;100117.44;4913892;29;20629;-80
2020/12/03 04:53:50;;;;;;;3.30;1.05;;;;;;;1.83;100.00;100117.25;4923127;29;21083;-81
2020/12/03 04:56:25;;;;;;;3.45;0.82;;;;;;;1.86;100.00;100110.53;4931636;29;20196;-79
2020/12/03 04:58:59;;;;;;;2.27;0.53;;;;;;;1.92;100.00;100113.84;4904533;29;20217;-81
2020/12/03 05:01:51;;;;;;;3.78;1.30;;;;;;;1.65;100.00;100104.25;4901922;29;20455;-81
2020/12/03 05:04:39;;;;;;;2.58;0.60;;;;;;;1.71;100.00;100114.41;4916622;28;20209;-80
2020/12/03 05:07:10;;;;;;;5.50;0.65;;;;;;;1.98;100.00;100104.59;4991325;28;20310;-79
2020/12/03 05:09:47;;;;;;;3.53;0.70;;;;;;;1.84;100.00;100110.06;4972243;28;20184;-80
2020/12/03 05:12:26;;;;;;;3.55;1.30;;;;;;;1.79;100.00;100108.34;4975959;28;20238;-82
2020/12/03 05:14:56;;;;;;;3.03;0.90;;;;;;;1.67;100.00;100099.41;4977134;28;20218;-80
2020/12/03 05:17:34;;;;;;;5.10;1.13;;;;;;;1.99;100.00;100098.22;4978797;28;20774;-79
2020/12/03 05:20:11;;;;;;;5.40;0.97;;;;;;;1.98;100.00;100092.13;4971122;28;20175;-79
2020/12/03 05:22:38;;;;;;;3.08;0.68;;;;;;;1.88;100.00;100089.00;4958844;28;20442;-81
2020/12/03 05:25:13;;;;;;;3.20;1.02;;;;;;;1.76;100.00;100085.06;4977153;28;20301;-79
2020/12/03 05:27:39;;;;;;;4.03;1.45;;;;;;;1.70;100.00;100086.31;4982804;28;20243;-80
2020/12/03 05:30:07;;;;;;;2.90;0.73;;;;;;;1.78;100.00;100077.59;4964362;28;20180;-81
2020/12/03 05:32:33;;;;;;;2.05;0.50;;;;;;;1.89;100.00;100075.44;4986684;28;20533;-79
2020/12/03 05:34:59;;;;;;;1.77;0.40;;;;;;;1.79;100.00;100055.28;4978743;28;20232;-81
2020/12/03 05:37:27;;;;;;;1.50;0.22;;;;;;;1.81;100.00;100055.75;4978537;28;20209;-81
2020/12/03 05:39:55;;;;;;;3.38;0.90;;;;;;;1.91;100.00;100045.91;4973292;28;20184;-81
2020/12/03 05:42:34;;;;;;;3.78;0.80;;;;;;;1.93;99.90;100049.03;4977708;28;20180;-82
2020/12/03 05:45:18;;;;;;;4.30;1.30;;;;;;;1.78;100.00;100058.25;4979981;28;20185;-81
2020/12/03 05:47:47;;;;;;;3.25;0.85;;;;;;;1.82;100.00;100049.34;4974507;28;20215;-79
2020/12/03 05:50:29;;;;;;;1.90;0.50;;;;;;;1.80;100.00;100048.88;4985773;28;20562;-81
2020/12/03 05:53:03;;;;;;;3.10;0.83;;;;;;;1.72;100.00;100048.88;5007872;28;20565;-78
2020/12/03 05:55:30;;;;;;;3.00;0.70;;;;;;;1.65;100.00;100041.38;4983384;28;20452;-78
2020/12/03 05:58:11;;;;;;;2.60;0.52;;;;;;;1.99;100.00;100045.13;4966908;28;20465;-80
2020/12/03 06:00:39;;;;;;;4.70;1.20;;;;;;;1.94;99.77;100042.63;4967510;28;20689;-81
2020/12/03 06:03:07;;;;;;;3.20;1.02;;;;;;;2.01;99.40;100048.25;4966623;28;20211;-80
2020/12/03 06:06:08;;;;;;;3.70;0.90;;;;;;;1.98;99.40;100048.88;4964000;28;20191;-81
2020/12/03 06:08:52;;;;;;;2.30;0.90;;;;;;;1.94;99.19;100037.31;4974714;28;20541;-80
2020/12/03 06:12:07;;;;;;;4.22;1.00;;;;;;;2.10;99.13;100038.41;4980049;28;20212;-79
2020/12/03 06:14:51;;;;;;;4.25;1.08;;;;;;;2.01;99.18;100033.13;4973366;28;20196;-77
2020/12/03 06:17:43;;;;;;;3.05;0.90;;;;;;;1.95;99.39;100022.97;4964490;28;20199;-79
2020/12/03 06:20:17;;;;;;;3.25;0.75;;;;;;;1.88;99.68;100017.34;4975182;28;20190;-81
2020/12/03 06:22:43;;;;;;;2.85;0.93;;;;;;;1.66;100.00;99999.72;4987606;28;20176;-82
2020/12/03 06:25:50;;;;;;;3.93;1.50;;;;;;;2.00;100.00;100001.56;4975002;28;20199;-78
2020/12/03 06:28:30;;;;;;;3.90;1.10;;;;;;;2.11;99.88;100000.91;4974303;28;20226;-81
2020/12/03 06:31:12;;;;;;;4.55;0.98;;;;;;;2.13;98.97;100003.28;4979962;28;20438;-80
2020/12/03 06:33:44;;;;;;;1.83;0.40;;;;;;;1.75;99.85;100001.28;4951903;28;20728;-79
2020/12/03 06:36:28;;;;;;;2.60;0.60;;;;;;;1.97;100.00;100005.63;4968067;28;20245;-77
2020/12/03 06:39:01;;;;;;;3.92;1.05;;;;;;;2.08;100.00;99988.28;4978743;28;20277;-80
2020/12/03 06:41:35;;;;;;;3.37;0.93;;;;;;;2.18;99.73;99989.84;4976706;28;20178;-79
2020/12/03 06:44:32;;;;;;;4.63;1.50;;;;;;;1.94;100.00;99986.88;4976017;28;20445;-79
2020/12/03 06:47:20;;;;;;;1.90;0.33;;;;;;;1.80;100.00;99989.72;4973188;28;20498;-81
2020/12/03 06:50:13;;;;;;;2.45;0.65;;;;;;;1.99;99.88;99994.69;4974219;28;20567;-81
2020/12/03 06:53:20;;;;;;;2.80;0.52;;;;;;;1.81;100.00;99994.72;4971398;28;20202;-77
2020/12/03 06:56:15;;;;;;;2.70;0.70;;;;;;;1.87;100.00;99989.25;4977913;28;20507;-81
2020/12/03 06:59:03;;;;;;;2.53;0.60;;;;;;;2.12;99.78;99988.44;4980814;28;20197;-78
2020/12/03 07:01:43;;;;;;;3.80;1.30;;;;;;;1.92;100.00;99994.41;4975267;28;20187;-76
2020/12/03 07:04:53;;;;;;;2.28;0.63;;;;;;;2.06;99.45;99976.41;4978700;28;20184;-80
2020/12/03 07:07:34;;;;;;;2.22;0.60;;;;;;;1.97;99.75;99978.31;4980519;28;20504;-80
2020/12/03 07:10:05;;;;;;;2.05;0.50;;;;;;;1.70;100.00;99969.56;4973022;28;20611;-79
2020/12/03 07:12:46;;;;;;;2.65;0.80;;;;;;;1.93;100.00;99974.72;4977708;28;20209;-80
2020/12/03 07:15:40;;;;;;;2.17;0.75;;;;;;;1.97;100.00;99965.81;4979590;28;20247;-82
2020/12/03 07:18:11;;;;;;;1.80;0.37;;;;;;;1.97;100.00;99976.44;4990814;28;20268;-79
2020/12/03 07:21:05;;;;;;;3.20;0.50;;;;;;;1.91;100.00;99967.06;4968903;28;20443;-81
2020/12/03 07:23:40;;;;;;;3.63;0.75;;;;;;;1.82;100.00;99960.97;4969100;28;20241;-80
2020/12/03 07:26:22;;;;;;;3.35;0.63;;;;;;;1.80;100.00;99955.22;4975794;28;20191;-77
2020/12/03 07:28:48;;;;;;;5.50;1.35;;;;;;;1.77;100.00;99958.50;4973708;28;20207;-75
2020/12/03 07:31:22;;;;;;;2.85;0.70;;;;;;;2.04;100.00;99952.06;4972396;28;20210;-80
2020/12/03 07:34:11;;;;;;;2.15;0.70;;;;;;;1.96;100.00;99955.50;4976149;28;20269;-79
2020/12/03 07:36:58;;;;;;;2.13;0.50;;;;;;;1.71;100.00;99947.25;4970825;28;20242;-77
2020/12/03 07:39:35;;;;;;;1.80;0.47;;;;;;;1.96;100.00;99943.00;4972894;28;20174;-79
2020/12/03 07:42:11;;;;;;;1.87;0.50;;;;;;;2.06;100.00;99955.97;4978825;28;20457;-78
2020/12/03 07:44:50;;;;;;;2.45;0.75;;;;;;;2.08;100.00;99963.59;4968402;28;20452;-76
2020/12/03 07:47:32;;;;;;;3.87;0.90;;;;;;;2.28;100.00;99949.66;4972622;28;20205;-77
2020/12/03 07:50:06;;;;;;;2.70;0.95;;;;;;;1.89;100.00;99955.19;4966161;28;20465;-77
2020/12/03 07:52:39;;;;;;;1.70;0.40;;;;;;;1.92;100.00;99954.59;4981945;28;20271;-77
2020/12/03 07:55:20;;;;;;;4.35;1.20;;;;;;;1.93;100.00;99941.00;4963652;28;20196;-79
2020/12/03 07:57:59;;;;;;;4.00;1.27;;;;;;;2.00;100.00;99945.81;4973934;28;20220;-78
2020/12/03 08:00:24;;;;;;;3.20;0.70;;;;;;;2.12;100.00;99948.59;4973529;28;20444;-79
2020/12/03 08:02:56;;;;;;;3.77;1.27;;;;;;;1.86;100.00;99938.03;4972330;28;20493;-78
2020/12/03 08:05:33;;;;;;;3.95;0.98;;;;;;;2.01;100.00;99931.47;4972344;28;20780;-78
2020/12/03 08:07:59;;;;;;;2.60;0.90;;;;;;;2.16;100.00;99933.59;4967408;28;20224;-77
2020/12/03 08:10:39;;;;;;;4.27;0.80;;;;;;;2.03;100.00;99926.63;4978906;28;20510;-78
2020/12/03 08:13:20;;;;;;;4.15;1.02;;;;;;;1.92;100.00;99928.81;4970924;28;20689;-80
2020/12/03 08:16:03;;;;;;;3.35;0.80;;;;;;;2.02;100.00;99922.38;4971350;28;20308;-77
2020/12/03 08:18:45;;;;;;;6.40;1.92;;;;;;;2.08;100.00;99915.81;4978124;28;20737;-77
2020/12/03 08:21:13;;;;;;;3.10;0.63;;;;;;;2.23;100.00;99917.97;4973303;28;20244;-80
2020/12/03 08:23:39;;;;;;;2.50;0.63;;;;;;;2.16;100.00;99907.06;4971313;28;21011;-80
2020/12/03 08:26:05;;;;;;;4.10;1.17;;;;;;;2.15;100.00;99895.66;4972109;28;20439;-80
2020/12/03 08:28:32;;;;;;;2.00;0.50;;;;;;;2.08;100.00;99890.06;4971044;28;20203;-80
2020/12/03 08:30:58;;;;;;;3.47;1.30;;;;;;;2.24;100.00;99872.53;4976046;28;20651;-79
2020/12/03 08:33:34;;;;;;;2.70;0.80;;;;;;;2.16;100.00;99875.19;4969472;28;20291;-77
2020/12/03 08:36:03;;;;;;;2.43;0.50;;;;;;;2.13;100.00;99865.22;4970405;28;20189;-79
2020/12/03 08:38:34;;;;;;;4.17;0.57;;;;;;;2.18;100.00;99867.69;4972270;28;20497;-79
2020/12/03 08:41:06;;;;;;;2.88;0.75;;;;;;;2.19;100.00;99875.34;4965415;28;20886;-80
2020/12/03 08:43:39;;;;;;;3.95;0.80;;;;;;;2.08;100.00;99873.34;4969549;28;20179;-78
2020/12/03 08:46:12;;;;;;;2.17;0.63;;;;;;;1.83;100.00;99877.63;4964427;28;20258;-79
2020/12/03 08:48:39;;;;;;;2.47;1.23;;;;;;;2.00;100.00;99866.19;4962993;28;20470;-78
2020/12/03 08:51:08;;;;;;;2.22;0.70;;;;;;;2.09;100.00;99856.34;4967213;28;20211;-78
2020/12/03 08:53:36;;;;;;;1.80;0.60;;;;;;;2.28;100.00;99859.38;4965131;28;20195;-78
2020/12/03 08:56:30;;;;;;;1.70;0.30;;;;;;;2.12;100.00;99858.34;4970424;28;20640;-77
2020/12/03 08:59:08;;;;;;;5.00;0.77;;;;;;;2.06;100.00;99851.66;4966959;28;20609;-78
2020/12/03 09:01:43;;;;;;;1.73;0.70;;;;;;;2.15;100.00;99844.44;4964672;28;20491;-78
2020/12/03 09:04:09;;;;;;;2.67;0.80;;;;;;;1.99;100.00;99846.06;4962108;28;20559;-78
2020/12/03 09:06:46;;;;;;;2.90;0.77;;;;;;;2.08;100.00;99839.63;4964050;28;20180;-78
2020/12/03 09:09:12;;;;;;;3.83;1.02;;;;;;;2.09;100.00;99841.16;4953321;28;20458;-77
2020/12/03 09:11:38;;;;;;;2.70;0.73;;;;;;;2.04;100.00;99837.91;4958088;28;20198;-79
2020/12/03 09:14:24;;;;;;;2.77;1.07;;;;;;;2.10;100.00;99831.34;4969664;28;20200;-78
2020/12/03 09:16:57;;;;;;;3.28;0.80;;;;;;;2.23;100.00;99828.47;4959736;28;20447;-79
2020/12/03 09:19:26;;;;;;;3.20;1.10;;;;;;;2.43;100.00;99829.63;4963980;28;20289;-79
2020/12/03 09:21:53;;;;;;;2.93;0.80;;;;;;;2.49;100.00;99818.50;4951498;28;20528;-79
2020/12/03 09:24:24;;;;;;;5.57;0.93;;;;;;;2.43;100.00;99821.66;4962854;28;20844;-77
2020/12/03 09:26:50;;;;;;;5.03;0.85;;;;;;;2.58;100.00;99815.78;4983478;28;20448;-79
2020/12/03 09:29:18;;;;;;;2.03;0.43;;;;;;;2.05;100.00;99808.41;4968076;28;20644;-79
2020/12/03 09:31:44;;;;;;;2.17;0.88;;;;;;;2.15;100.00;99804.63;4955333;28;20215;-78
2020/12/03 09:34:14;;;;;;;3.25;1.08;;;;;;;2.24;100.00;99800.81;4961027;28;20298;-81
2020/12/03 09:36:39;;;;;;;2.28;0.55;;;;;;;2.18;100.00;99809.28;4963922;28;20188;-78
2020/12/03 09:39:06;;;;;;;4.57;1.07;;;;;;;2.28;100.00;99803.63;4966758;28;20324;-78
2020/12/03 09:41:33;;;;;;;3.60;0.43;;;;;;;2.18;100.00;99799.44;4956537;28;20502;-78
2020/12/03 09:44:05;;;;;;;4.30;1.10;;;;;;;2.25;100.00;99797.06;4969407;28;20192;-77
2020/12/03 09:46:38;;;;;;;5.30;1.27;;;;;;;2.31;100.00;99787.03;4962683;28;20235;-78
2020/12/03 09:49:04;;;;;;;5.03;0.77;;;;;;;2.36;100.00;99789.50;4959168;28;20553;-78
2020/12/03 09:51:33;;;;;;;3.17;0.63;;;;;;;2.22;100.00;99786.31;4949460;28;20521;-79
2020/12/03 09:54:02;;;;;;;3.20;0.90;;;;;;;2.37;100.00;99785.75;4958475;28;20454;-78
2020/12/03 09:56:39;;;;;;;3.13;1.17;;;;;;;2.48;100.00;99786.91;4969310;28;20368;-78
2020/12/03 09:59:06;;;;;;;3.17;0.68;;;;;;;2.13;100.00;99782.91;4974002;28;20434;-78
2020/12/03 10:01:57;;;;;;;3.15;0.73;;;;;;;2.20;100.00;99786.63;4973795;28;20692;-77
2020/12/03 10:04:46;;;;;;;2.60;0.30;;;;;;;2.51;100.00;99781.75;4970054;28;20758;-78
2020/12/03 10:07:46;;;;;;;4.30;1.15;;;;;;;2.47;100.00;99782.72;4973114;28;20897;-79
2020/12/03 10:10:40;;;;;;;3.20;0.57;;;;;;;2.35;100.00;99772.00;4978621;28;20662;-79
2020/12/03 10:13:24;;;;;;;3.90;1.40;;;;;;;2.64;100.00;99774.63;4965709;28;20474;-78
2020/12/03 10:16:02;;;;;;;4.00;1.10;;;;;;;2.72;100.00;99768.47;4973794;28;20863;-78
2020/12/03 10:18:48;;;;;;;2.27;0.70;;;;;;;2.79;99.55;99750.13;4977568;28;20995;-79
2020/12/03 10:21:19;;;;;;;3.17;0.60;;;;;;;2.74;99.37;99742.34;4969122;28;20810;-79
2020/12/03 10:23:50;;;;;;;2.07;0.50;;;;;;;2.83;99.24;99729.00;4971530;28;20451;-79
2020/12/03 10:26:23;;;;;;;3.20;0.53;;;;;;;2.84;99.12;99725.25;4973156;28;20452;-78
2020/12/03 10:28:52;;;;;;;2.00;0.65;;;;;;;2.72;99.39;99726.75;4974119;28;20867;-78
2020/12/03 10:31:20;;;;;;;4.70;0.80;;;;;;;2.66;99.89;99724.59;4970970;28;20182;-79
2020/12/03 10:33:50;;;;;;;2.77;0.70;;;;;;;2.64;99.66;99719.63;4973868;28;20486;-80
2020/12/03 10:36:26;;;;;;;4.00;1.00;;;;;;;2.78;99.51;99716.69;4978781;28;20460;-77
2020/12/03 10:38:55;;;;;;;2.27;0.50;;;;;;;2.67;100.00;99710.22;4963177;28;20476;-79
2020/12/03 10:41:42;;;;;;;3.57;0.80;;;;;;;2.68;99.71;99707.25;4983410;28;20448;-78
2020/12/03 10:44:14;;;;;;;4.23;0.70;;;;;;;2.65;100.00;99701.81;4981577;28;20467;-77
2020/12/03 10:46:47;;;;;;;4.20;0.83;;;;;;;2.55;100.00;99707.50;5002868;28;20462;-81
2020/12/03 10:49:16;;;;;;;3.23;0.63;;;;;;;2.72;100.00;99696.72;4978511;28;20511;-79
2020/12/03 10:51:45;;;;;;;2.37;0.67;;;;;;;2.58;100.00;99696.22;4985559;28;20499;-80
2020/12/03 10:54:17;;;;;;;5.20;1.33;;;;;;;2.68;100.00;99696.59;5009895;28;20445;-81
2020/12/03 10:56:44;;;;;;;2.23;0.73;;;;;;;2.56;100.00;99693.88;4977393;28;20447;-80
2020/12/03 10:59:32;;;;;;;2.70;0.97;;;;;;;2.66;100.00;99692.72;4981172;28;20456;-80
2020/12/03 11:01:59;;;;;;;2.63;0.80;;;;;;;2.70;100.00;99691.75;4977301;28;20495;-82
2020/12/03 11:04:25;;;;;;;2.30;0.70;;;;;;;2.87;100.00;99677.50;4983285;28;20445;-79
2020/12/03 11:06:51;;;;;;;6.13;0.87;;;;;;;2.80;100.00;99669.31;4976967;28;21380;-78
2020/12/03 11:09:19;;;;;;;1.83;0.60;;;;;;;2.60;100.00;99673.53;4989965;28;20432;-78
2020/12/03 11:11:46;;;;;;;4.00;1.10;;;;;;;2.62;100.00;99666.03;4991811;28;20249;-78
2020/12/03 11:14:14;;;;;;;2.27;1.03;;;;;;;2.59;100.00;99661.34;4995434;28;20456;-77
2020/12/03 11:17:07;;;;;;;3.70;0.60;;;;;;;2.59;100.00;99648.06;4990224;28;20462;-80
2020/12/03 11:19:34;;;;;;;4.07;0.90;;;;;;;2.57;100.00;99657.47;4995910;28;20447;-80
2020/12/03 11:22:18;;;;;;;2.67;1.10;;;;;;;2.70;100.00;99648.44;4986968;28;20466;-80
2020/12/03 11:24:49;;;;;;;2.40;0.63;;;;;;;2.84;100.00;99643.63;4977459;28;21129;-79
2020/12/03 11:27:19;;;;;;;2.23;0.57;;;;;;;2.97;100.00;99642.53;4996421;28;20474;-79
2020/12/03 11:29:45;;;;;;;1.90;0.40;;;;;;;2.79;99.93;99643.06;4982307;28;20438;-80
2020/12/03 11:32:20;;;;;;;1.90;0.30;;;;;;;2.96;99.86;99634.91;4984060;28;20524;-81
2020/12/03 11:34:45;;;;;;;2.60;0.70;;;;;;;2.75;100.00;99634.94;4987817;28;20173;-79
2020/12/03 11:37:14;;;;;;;3.17;0.67;;;;;;;2.87;99.88;99629.66;4974438;28;20491;-78
2020/12/03 11:39:39;;;;;;;3.80;1.27;;;;;;;2.64;100.00;99620.53;4984864;28;20189;-77
2020/12/03 11:50:24;;;;;;;3.25;0.77;;;;;;;2.46;100.00;99608.50;4985485;28;20948;-76
2020/12/03 11:52:50;;;;;;;3.80;0.57;;;;;;;2.46;100.00;99603.19;4994901;28;20204;-74
2020/12/03 11:55:17;;;;;;;2.03;0.67;;;;;;;2.65;100.00;99606.91;4967664;28;20516;-78
2020/12/03 11:57:43;;;;;;;2.80;0.60;;;;;;;2.71;100.00;99599.50;4991468;28;20218;-79
2020/12/03 12:00:16;;;;;;;2.37;0.73;;;;;;;2.82;100.00;99600.66;5003137;28;20516;-79
2020/12/03 12:02:41;;;;;;;3.43;0.80;;;;;;;2.75;100.00;99595.84;4990508;28;20240;-77
2020/12/03 12:05:14;;;;;;;5.47;1.13;;;;;;;2.85;100.00;99584.03;4992095;28;21015;-79